PATL/TLJ METAR and TAF weather

Enter ICAO airport designator
Station Type Date Time Source
PATL METAR 2024/07/23 17:55 UTC NOAA

PATL 231755Z 06003KT 10SM CLR 22/14 A3007 RMK AO2A SLP171 5//// BWC LOW


Station Type Date Time Source
PATL Decoded METAR 2024/07/23 17:55 UTC NOAA

Takotna, Tatalina LRRS Airport, AK, United States (PATL) 62-54N 155-59W
Jul 23, 2024 - 01:55 PM EDT / 2024.07.23 1755 UTC
Wind: from the ENE (060 degrees) at 3 MPH (3 KT):0
Visibility: 10 mile(s):0
Sky conditions: clear
Temperature: 71 F (22 C)
Dew Point: 57 F (14 C)
Relative Humidity: 60%
Pressure (altimeter): 30.07 in. Hg (1018 hPa)
ob: PATL 231755Z 06003KT 10SM CLR 22/14 A3007 RMK AO2A SLP171 5//// BWC LOW
cycle: 18

Station Type Date Time Source
PATL TAF 2012/01/12 14:06 UTC NOAA